Disclaimer

Please do not use the information listed here in-flight or in-navigation, as they are not provided to us by the airports but are provided by volunteers, so they might be outdated.

Search


Regions


Airport information page

Radio informations:
CORDOBA TWR/APP - 118.3 MHz
METAR NOTAM - 3425.5 MHz
Ground (GND) - 121.75 MHz
Automatic Terminal Information Service (ATIS) - 114.5 MHz

Airport informations:
Latitude: 31° 19' 25.03" S
Longitude: 064° 12' 28.63" W
Elevation: 1604 feet - 489 meters
Operating hours: 24 hour operations
Operating agency: Civil government, landing fees and diplomatic clearance may be required
Timezone: UTC-3
Fuel: Jet A1, without icing nhibitor.

Runway information:
05/23 - 8085 x 148 feet< - >2464 x 45 meters
18/36 - 10410 x 148 feet< - >3173 x 45 meters

Recent METARs:
SACO 190400Z 01010KT CAVOK 15/02 Q1018 NOSIG
SACO 190400Z 01010KT CAVOK 15/02 Q1018 NOSIG
SACO 190500Z 35007KT CAVOK 14/02 Q1017 NOSIG

Airport on the map: